KHSP/HSP METAR and TAF weather

Enter ICAO airport designator
Station Type Date Time Source
KHSP METAR 2019/09/20 20:17 UTC NOAA

KHSP 202017Z AUTO 19006KT 10SM SCT033 BKN041 21/14 A3033 RMK AO2


Station Type Date Time Source
KHSP Decoded METAR 2019/09/20 20:17 UTC NOAA

Hot Springs / Ingalls, VA, United States (KHSP) 37-57N 079-50W
Sep 20, 2019 - 04:17 PM EDT / 2019.09.20 2017 UTC
Wind: from the S (190 degrees) at 7 MPH (6 KT):0
Visibility: 10 mile(s):0
Sky conditions: mostly cloudy
Temperature: 69 F (21 C)
Dew Point: 57 F (14 C)
Relative Humidity: 64%
Pressure (altimeter): 30.33 in. Hg (1027 hPa)
ob: KHSP 202017Z AUTO 19006KT 10SM SCT033 BKN041 21/14 A3033 RMK AO2
cycle: 20

Station Type Date Time Source
KHSP TAF UTC NOAA

Error!

Example: see airport list